createdAt,value
2019-06-27T00:00:57.621Z,87.46
2019-06-27T00:01:57.607Z,86.99
2019-06-27T00:02:57.597Z,86.99
2019-06-27T00:03:57.580Z,87.95
2019-06-27T00:04:57.587Z,86.99
2019-06-27T00:05:57.555Z,87.56
2019-06-27T00:06:57.542Z,87.37
2019-06-27T00:07:57.528Z,87.37
2019-06-27T00:08:57.518Z,87.46
2019-06-27T00:09:57.503Z,87.08
2019-06-27T00:10:57.487Z,87.08
2019-06-27T00:11:57.487Z,87.37
2019-06-27T00:12:57.465Z,87.18
2019-06-27T00:13:57.453Z,86.99
2019-06-27T00:14:57.439Z,86.99
2019-06-27T00:15:57.434Z,86.69
2019-06-27T00:16:57.409Z,86.79
2019-06-27T00:17:57.396Z,86.89
2019-06-27T00:18:57.381Z,86.79
2019-06-27T00:19:57.371Z,86.51
2019-06-27T00:20:57.359Z,85.83
2019-06-27T00:21:57.348Z,86.41
2019-06-27T00:22:57.339Z,86.69
2019-06-27T00:23:57.324Z,86.12
2019-06-27T00:24:57.307Z,86.69
2019-06-27T00:25:57.291Z,86.60
2019-06-27T00:26:57.777Z,86.41
2019-06-27T00:27:57.269Z,86.69
2019-06-27T00:28:57.250Z,86.99
2019-06-27T00:29:57.241Z,86.99
2019-06-27T00:30:57.232Z,86.79
2019-06-27T00:31:57.211Z,86.69
2019-06-27T00:32:57.200Z,86.89
2019-06-27T00:33:57.184Z,86.60
2019-06-27T00:34:57.176Z,86.69
2019-06-27T00:35:57.167Z,86.89
2019-06-27T00:36:57.144Z,86.75
2019-06-27T00:37:57.131Z,87.18
2019-06-27T00:38:57.119Z,87.33
2019-06-27T00:39:57.106Z,87.23
2019-06-27T00:40:57.096Z,87.04
2019-06-27T00:41:57.082Z,87.33
2019-06-27T00:42:57.065Z,87.33
2019-06-27T00:43:57.053Z,87.37
2019-06-27T00:44:57.038Z,86.75
2019-06-27T00:45:57.074Z,86.94
2019-06-27T00:46:57.020Z,87.23
2019-06-27T00:47:56.999Z,87.23
2019-06-27T00:48:56.986Z,87.42
2019-06-27T00:49:56.972Z,86.65
2019-06-27T00:50:56.958Z,87.08
2019-06-27T00:51:56.971Z,86.94
2019-06-27T00:52:56.935Z,86.94
2019-06-27T00:53:56.923Z,86.85
2019-06-27T00:54:56.906Z,87.23
2019-06-27T00:55:56.893Z,87.13
2019-06-27T00:57:12.564Z,87.42
2019-06-27T00:57:56.864Z,86.85
2019-06-27T00:58:56.856Z,86.75
2019-06-27T00:59:56.841Z,86.60
2019-06-27T01:00:56.824Z,86.22
2019-06-27T01:01:56.817Z,86.51
2019-06-27T01:02:56.799Z,85.74
2019-06-27T01:03:56.814Z,85.98
2019-06-27T01:04:56.777Z,85.50
2019-06-27T01:05:56.759Z,85.98
2019-06-27T01:06:56.747Z,86.18
2019-06-27T01:07:56.735Z,86.18
2019-06-27T01:08:56.719Z,86.18
2019-06-27T01:09:56.707Z,86.27
2019-06-27T01:10:56.691Z,86.65
2019-06-27T01:11:56.681Z,86.08
2019-06-27T01:12:56.667Z,85.78
2019-06-27T01:13:56.653Z,85.64
2019-06-27T01:14:56.641Z,85.25
2019-06-27T01:15:56.627Z,85.25
2019-06-27T01:16:56.610Z,85.78
2019-06-27T01:17:56.598Z,85.83
2019-06-27T01:18:56.587Z,85.83
2019-06-27T01:19:56.598Z,85.35
2019-06-27T01:20:56.609Z,85.35
2019-06-27T01:21:56.557Z,85.06
2019-06-27T01:22:56.534Z,85.44
2019-06-27T01:23:56.517Z,85.02
2019-06-27T01:24:56.508Z,84.87
2019-06-27T01:25:56.492Z,85.74
2019-06-27T01:26:56.481Z,84.97
2019-06-27T01:27:56.462Z,85.02
2019-06-27T01:28:56.454Z,85.21
2019-06-27T01:29:56.438Z,85.02
2019-06-27T01:30:56.438Z,85.31
2019-06-27T01:31:56.411Z,85.31
2019-06-27T01:32:56.404Z,85.78
2019-06-27T01:33:56.382Z,86.36
2019-06-27T01:34:56.374Z,85.98
2019-06-27T01:35:56.359Z,86.46
2019-06-27T01:36:56.341Z,86.46
2019-06-27T01:37:56.329Z,85.78
2019-06-27T01:38:56.318Z,85.40
2019-06-27T01:39:56.306Z,85.69
2019-06-27T01:40:56.289Z,86.27
2019-06-27T01:41:56.281Z,86.36
2019-06-27T01:42:56.273Z,86.52
2019-06-27T01:43:56.250Z,86.75
2019-06-27T01:44:56.237Z,86.56
2019-06-27T01:45:56.239Z,86.36
2019-06-27T01:46:56.208Z,86.27
2019-06-27T01:47:56.197Z,86.52
2019-06-27T01:48:56.184Z,86.22
2019-06-27T01:49:56.167Z,86.61
2019-06-27T01:50:56.202Z,86.90
2019-06-27T01:51:56.140Z,87.09
2019-06-27T01:52:56.129Z,87.19
2019-06-27T01:53:56.113Z,87.09
2019-06-27T01:54:56.098Z,87.19
2019-06-27T01:55:56.085Z,86.90
2019-06-27T01:56:56.074Z,86.71
2019-06-27T01:57:56.058Z,87.19
2019-06-27T01:58:56.054Z,86.80
2019-06-27T01:59:56.034Z,86.90
2019-06-27T02:00:56.025Z,86.80
2019-06-27T02:01:56.004Z,86.61
2019-06-27T02:02:55.994Z,86.52
2019-06-27T02:03:55.976Z,86.52
2019-06-27T02:04:55.974Z,86.13
2019-06-27T02:05:55.955Z,86.36
2019-06-27T02:06:55.937Z,85.88
2019-06-27T02:07:55.930Z,85.84
2019-06-27T02:08:55.907Z,85.65
2019-06-27T02:09:55.889Z,85.84
2019-06-27T02:10:55.877Z,86.71
2019-06-27T02:11:55.867Z,86.52
2019-06-27T02:12:55.848Z,86.52
2019-06-27T02:13:55.845Z,86.61
2019-06-27T02:14:55.857Z,86.04
2019-06-27T02:15:55.814Z,86.32
2019-06-27T02:16:55.806Z,86.61
2019-06-27T02:17:55.781Z,86.42
2019-06-27T02:18:55.768Z,86.42
2019-06-27T02:19:55.759Z,86.04
2019-06-27T02:20:55.741Z,86.04
2019-06-27T02:21:55.742Z,86.32
2019-06-27T02:22:55.716Z,85.98
2019-06-27T02:23:55.702Z,85.55
2019-06-27T02:24:55.685Z,85.60
2019-06-27T02:25:55.675Z,85.55
2019-06-27T02:26:55.659Z,86.04
2019-06-27T02:28:03.634Z,86.52
2019-06-27T02:28:55.631Z,86.52
2019-06-27T02:29:55.617Z,86.13
2019-06-27T02:30:55.604Z,86.32
2019-06-27T02:31:55.589Z,86.13
2019-06-27T02:32:55.578Z,86.04
2019-06-27T02:33:55.565Z,85.60
2019-06-27T02:34:55.548Z,86.18
2019-06-27T02:35:55.544Z,86.61
2019-06-27T02:36:55.531Z,86.90
2019-06-27T02:37:55.511Z,86.99
2019-06-27T02:38:55.495Z,87.19
2019-06-27T02:39:55.485Z,87.09
2019-06-27T02:40:58.767Z,87.57
2019-06-27T02:41:55.451Z,87.67
2019-06-27T02:42:55.434Z,87.09
2019-06-27T02:43:55.429Z,86.90
2019-06-27T02:44:55.414Z,86.61
2019-06-27T02:45:55.396Z,86.32
2019-06-27T02:46:55.382Z,86.90
2019-06-27T02:47:55.382Z,86.13
2019-06-27T02:48:55.362Z,85.65
2019-06-27T02:49:55.343Z,85.75
2019-06-27T02:50:55.331Z,85.36
2019-06-27T02:51:55.318Z,85.94
2019-06-27T02:52:55.298Z,85.65
2019-06-27T02:53:55.286Z,85.27
2019-06-27T02:54:55.271Z,85.94
2019-06-27T02:55:55.256Z,85.36
2019-06-27T02:56:55.242Z,84.98
2019-06-27T02:57:55.230Z,84.88
2019-06-27T02:58:55.216Z,85.36
2019-06-27T02:59:55.201Z,85.17
2019-06-27T03:00:55.188Z,85.36
2019-06-27T03:01:55.204Z,85.36
2019-06-27T03:02:55.158Z,85.46
2019-06-27T03:03:55.146Z,85.46
2019-06-27T03:04:55.133Z,85.46
2019-06-27T03:05:55.121Z,86.13
2019-06-27T03:06:55.112Z,86.13
2019-06-27T03:07:55.089Z,85.55
2019-06-27T03:08:55.076Z,85.75
2019-06-27T03:09:55.063Z,85.17
2019-06-27T03:10:55.050Z,85.94
2019-06-27T03:11:59.571Z,85.36
2019-06-27T03:12:55.023Z,84.78
2019-06-27T03:13:55.007Z,84.59
2019-06-27T03:14:54.994Z,84.98
2019-06-27T03:15:54.980Z,85.17
2019-06-27T03:16:54.975Z,84.98
2019-06-27T03:17:54.952Z,84.21
2019-06-27T03:18:54.939Z,84.21
2019-06-27T03:19:54.927Z,84.40
2019-06-27T03:20:54.912Z,84.44
2019-06-27T03:21:54.899Z,84.06
2019-06-27T03:22:54.885Z,85.17
2019-06-27T03:23:54.867Z,85.02
2019-06-27T03:24:54.861Z,85.02
2019-06-27T03:25:54.841Z,85.02
2019-06-27T03:26:54.829Z,84.88
2019-06-27T03:27:54.813Z,84.54
2019-06-27T03:28:54.799Z,84.21
2019-06-27T03:29:54.788Z,84.40
2019-06-27T03:30:54.778Z,84.78
2019-06-27T03:31:54.772Z,85.36
2019-06-27T03:32:54.756Z,85.46
2019-06-27T03:33:54.743Z,85.36
2019-06-27T03:34:54.752Z,85.17
2019-06-27T03:35:54.701Z,85.07
2019-06-27T03:36:54.688Z,84.88
2019-06-27T03:37:54.677Z,84.30
2019-06-27T03:38:54.662Z,84.11
2019-06-27T03:39:54.647Z,84.21
2019-06-27T03:40:54.634Z,84.59
2019-06-27T03:41:54.625Z,84.40
2019-06-27T03:42:54.604Z,84.59
2019-06-27T03:43:54.592Z,84.50
2019-06-27T03:44:54.583Z,84.30
2019-06-27T03:45:54.563Z,84.78
2019-06-27T03:46:54.550Z,85.17
2019-06-27T03:47:54.536Z,84.98
2019-06-27T03:48:54.523Z,84.88
2019-06-27T03:49:54.509Z,84.88
2019-06-27T03:50:56.248Z,84.11
2019-06-27T03:51:54.497Z,84.40
2019-06-27T03:52:54.467Z,84.21
2019-06-27T03:53:54.456Z,84.01
2019-06-27T03:54:54.437Z,84.21
2019-06-27T03:55:54.430Z,84.50
2019-06-27T03:56:54.426Z,84.78
2019-06-27T03:57:54.398Z,84.11
2019-06-27T03:59:11.498Z,85.07
2019-06-27T03:59:54.370Z,85.17
2019-06-27T04:00:54.357Z,84.21
2019-06-27T04:01:54.346Z,84.59
2019-06-27T04:02:54.328Z,83.83
2019-06-27T04:03:54.322Z,83.63
2019-06-27T04:04:54.302Z,83.83
2019-06-27T04:05:54.285Z,84.11
2019-06-27T04:06:54.272Z,83.63
2019-06-27T04:07:54.260Z,83.83
2019-06-27T04:08:54.244Z,83.63
2019-06-27T04:09:54.234Z,84.11
2019-06-27T04:10:54.223Z,84.11
2019-06-27T04:11:54.212Z,84.11
2019-06-27T04:12:54.192Z,84.30
2019-06-27T04:13:54.183Z,83.83
2019-06-27T04:14:54.163Z,84.40
2019-06-27T04:15:54.147Z,84.21
2019-06-27T04:16:54.141Z,83.53
2019-06-27T04:17:54.118Z,82.76
2019-06-27T04:18:54.135Z,83.25
2019-06-27T04:19:54.094Z,83.63
2019-06-27T04:20:54.078Z,83.06
2019-06-27T04:21:54.076Z,82.86
2019-06-27T04:22:54.066Z,82.96
2019-06-27T04:23:54.042Z,82.96
2019-06-27T04:24:54.027Z,82.86
2019-06-27T04:25:54.026Z,82.86
2019-06-27T04:26:53.999Z,82.86
2019-06-27T04:27:53.988Z,83.53
2019-06-27T04:28:53.972Z,84.59
2019-06-27T04:29:53.956Z,84.01
2019-06-27T04:30:53.946Z,82.96
2019-06-27T04:31:53.945Z,82.38
2019-06-27T04:32:53.915Z,82.67
2019-06-27T04:33:53.900Z,81.23
2019-06-27T04:34:53.890Z,81.71
2019-06-27T04:35:53.878Z,81.99
2019-06-27T04:36:53.855Z,81.61
2019-06-27T04:37:53.845Z,81.42
2019-06-27T04:38:53.834Z,81.32
2019-06-27T04:39:53.817Z,80.94
2019-06-27T04:40:53.806Z,81.13
2019-06-27T04:41:53.788Z,81.23
2019-06-27T04:42:53.777Z,80.84
2019-06-27T04:43:53.766Z,80.75
2019-06-27T04:44:53.749Z,80.94
2019-06-27T04:45:53.732Z,80.75
2019-06-27T04:46:53.723Z,80.94
2019-06-27T04:47:53.709Z,81.61
2019-06-27T04:48:53.692Z,81.61
2019-06-27T04:49:53.682Z,81.61
2019-06-27T04:50:53.664Z,81.71
2019-06-27T04:51:53.653Z,80.94
2019-06-27T04:52:53.642Z,81.04
2019-06-27T04:53:53.634Z,81.42
2019-06-27T04:54:53.610Z,81.52
2019-06-27T04:55:53.596Z,81.61
2019-06-27T04:56:53.583Z,81.71
2019-06-27T04:57:53.579Z,81.52
2019-06-27T04:58:53.558Z,81.52
2019-06-27T04:59:54.432Z,81.52
2019-06-27T05:00:53.532Z,81.23
2019-06-27T05:01:53.520Z,81.52
2019-06-27T05:02:53.500Z,81.61
2019-06-27T05:03:53.484Z,82.19
2019-06-27T05:04:53.475Z,82.48
2019-06-27T05:05:53.458Z,82.29
2019-06-27T05:06:53.443Z,81.61
2019-06-27T05:07:53.429Z,81.32
2019-06-27T05:08:53.420Z,80.27
2019-06-27T05:09:53.406Z,80.27
2019-06-27T05:10:53.394Z,80.36
2019-06-27T05:11:53.377Z,80.07
2019-06-27T05:12:53.361Z,79.79
2019-06-27T05:13:53.348Z,79.40
2019-06-27T05:14:53.336Z,78.92
2019-06-27T05:15:53.331Z,79.11
2019-06-27T05:16:53.309Z,78.34
2019-06-27T05:17:53.293Z,78.44
2019-06-27T05:18:53.278Z,78.34
2019-06-27T05:19:53.267Z,78.25
2019-06-27T05:20:53.256Z,77.58
2019-06-27T05:21:53.241Z,77.19
2019-06-27T05:22:53.225Z,77.86
2019-06-27T05:23:53.212Z,77.73
2019-06-27T05:24:53.198Z,78.21
2019-06-27T05:25:53.188Z,78.30
2019-06-27T05:26:53.173Z,78.30
2019-06-27T05:27:53.158Z,78.21
2019-06-27T05:28:53.143Z,78.11
2019-06-27T05:30:08.289Z,78.40
2019-06-27T05:30:53.114Z,77.92
2019-06-27T05:31:53.102Z,77.86
2019-06-27T05:32:53.087Z,78.15
2019-06-27T05:33:53.076Z,78.06
2019-06-27T05:34:53.060Z,77.96
2019-06-27T05:35:53.048Z,78.15
2019-06-27T05:36:53.032Z,77.63
2019-06-27T05:37:53.021Z,78.30
2019-06-27T05:38:53.005Z,78.30
2019-06-27T05:39:52.991Z,78.11
2019-06-27T05:40:52.978Z,77.96
2019-06-27T05:41:52.967Z,77.76
2019-06-27T05:42:52.950Z,78.34
2019-06-27T05:43:52.936Z,77.29
2019-06-27T05:44:52.933Z,76.52
2019-06-27T05:45:52.917Z,76.90
2019-06-27T05:46:52.896Z,76.90
2019-06-27T05:47:52.884Z,76.32
2019-06-27T05:48:52.869Z,76.52
2019-06-27T05:49:52.859Z,76.52
2019-06-27T05:50:52.843Z,76.23
2019-06-27T05:51:52.832Z,76.26
2019-06-27T05:52:52.822Z,76.36
2019-06-27T05:53:52.817Z,76.75
2019-06-27T05:54:52.791Z,76.14
2019-06-27T05:55:52.791Z,76.32
2019-06-27T05:56:52.765Z,76.61
2019-06-27T05:57:52.753Z,75.84
2019-06-27T05:58:52.739Z,76.23
2019-06-27T05:59:52.777Z,76.23
2019-06-27T06:00:52.714Z,76.14
2019-06-27T06:01:52.703Z,77.00
2019-06-27T06:02:52.683Z,78.34
2019-06-27T06:03:52.677Z,77.96
2019-06-27T06:04:52.659Z,77.29
2019-06-27T06:05:52.646Z,77.58
2019-06-27T06:06:52.638Z,76.32
2019-06-27T06:07:52.617Z,77.38
2019-06-27T06:08:52.606Z,76.81
2019-06-27T06:09:52.597Z,76.36
2019-06-27T06:10:52.577Z,76.17
2019-06-27T06:11:52.565Z,76.84
2019-06-27T06:12:52.552Z,76.36
2019-06-27T06:13:52.542Z,76.36
2019-06-27T06:14:52.525Z,76.46
2019-06-27T06:15:52.512Z,76.17
2019-06-27T06:16:52.499Z,75.11
2019-06-27T06:17:52.486Z,75.02
2019-06-27T06:18:52.477Z,75.11
2019-06-27T06:19:52.574Z,75.54
2019-06-27T06:20:52.453Z,75.59
2019-06-27T06:21:52.443Z,75.31
2019-06-27T06:22:52.417Z,76.26
2019-06-27T06:23:52.407Z,76.26
2019-06-27T06:24:52.398Z,76.46
2019-06-27T06:25:52.383Z,76.26
2019-06-27T06:26:52.366Z,75.98
2019-06-27T06:27:52.361Z,75.31
2019-06-27T06:28:52.341Z,75.59
2019-06-27T06:29:52.328Z,75.82
2019-06-27T06:30:52.315Z,75.34
2019-06-27T06:31:52.304Z,75.54
2019-06-27T06:32:52.287Z,74.96
2019-06-27T06:33:52.280Z,74.76
2019-06-27T06:34:52.262Z,74.29
2019-06-27T06:35:52.257Z,74.44
2019-06-27T06:36:52.236Z,74.63
2019-06-27T06:37:52.222Z,75.40
2019-06-27T06:38:52.213Z,76.46
2019-06-27T06:39:52.201Z,76.31
2019-06-27T06:40:52.191Z,76.98
2019-06-27T06:41:52.171Z,75.15
2019-06-27T06:42:56.119Z,75.63
2019-06-27T06:43:52.145Z,75.34
2019-06-27T06:44:52.134Z,74.96
2019-06-27T06:45:52.121Z,74.38
2019-06-27T06:46:52.111Z,74.96
2019-06-27T06:47:52.093Z,73.80
2019-06-27T06:48:52.080Z,73.99
2019-06-27T06:49:52.069Z,74.96
2019-06-27T06:50:52.053Z,74.57
2019-06-27T06:51:52.104Z,73.80
2019-06-27T06:52:52.030Z,73.61
2019-06-27T06:53:52.015Z,73.13
2019-06-27T06:54:52.004Z,73.80
2019-06-27T06:55:52.009Z,74.09
2019-06-27T06:56:51.981Z,73.42
2019-06-27T06:57:51.991Z,72.84
2019-06-27T06:58:51.951Z,72.94
2019-06-27T06:59:51.946Z,74.09
2019-06-27T07:01:01.349Z,74.38
2019-06-27T07:01:51.920Z,74.48
2019-06-27T07:02:51.904Z,73.90
2019-06-27T07:03:51.890Z,74.22
2019-06-27T07:04:51.900Z,73.61
2019-06-27T07:05:51.879Z,72.84
2019-06-27T07:06:51.853Z,74.19
2019-06-27T07:07:51.837Z,73.55
2019-06-27T07:08:51.827Z,74.29
2019-06-27T07:09:51.817Z,72.74
2019-06-27T07:10:51.799Z,73.03
2019-06-27T07:11:51.813Z,73.51
2019-06-27T07:12:51.773Z,71.97
2019-06-27T07:13:51.761Z,71.97
2019-06-27T07:14:51.751Z,72.07
2019-06-27T07:15:51.735Z,72.65
2019-06-27T07:16:51.725Z,72.45
2019-06-27T07:17:51.715Z,72.30
2019-06-27T07:18:51.707Z,72.39
2019-06-27T07:19:51.714Z,72.11
2019-06-27T07:20:51.670Z,71.43
2019-06-27T07:21:51.657Z,70.95
2019-06-27T07:22:51.652Z,71.24
2019-06-27T07:23:51.631Z,70.28
2019-06-27T07:24:51.624Z,71.01
2019-06-27T07:25:51.607Z,70.82
2019-06-27T07:26:51.595Z,70.56
2019-06-27T07:27:51.581Z,70.92
2019-06-27T07:28:51.569Z,71.81
2019-06-27T07:29:51.566Z,71.04
2019-06-27T07:30:51.544Z,72.88
2019-06-27T07:31:51.535Z,71.53
2019-06-27T07:32:51.522Z,71.59
2019-06-27T07:33:51.517Z,70.37
2019-06-27T07:34:51.496Z,70.09
2019-06-27T07:35:51.490Z,71.34
2019-06-27T07:36:51.532Z,71.43
2019-06-27T07:37:51.467Z,70.86
2019-06-27T07:38:51.448Z,70.31
2019-06-27T07:39:51.432Z,70.31
2019-06-27T07:40:51.418Z,70.50
2019-06-27T07:41:51.406Z,70.98
2019-06-27T07:42:51.399Z,70.89
2019-06-27T07:43:51.382Z,70.79
2019-06-27T07:44:51.371Z,70.12
2019-06-27T07:45:51.357Z,70.31
2019-06-27T07:46:51.349Z,70.02
2019-06-27T07:47:51.337Z,69.67
2019-06-27T07:48:51.321Z,69.38
2019-06-27T07:49:51.312Z,69.67
2019-06-27T07:50:51.294Z,69.77
2019-06-27T07:51:51.284Z,68.90
2019-06-27T07:52:51.272Z,68.71
2019-06-27T07:53:51.262Z,68.71
2019-06-27T07:54:51.250Z,68.93
2019-06-27T07:55:51.244Z,68.26
2019-06-27T07:56:51.224Z,68.84
2019-06-27T07:57:51.229Z,69.03
2019-06-27T07:58:51.205Z,67.78
2019-06-27T07:59:51.188Z,67.71
2019-06-27T08:00:51.172Z,67.04
2019-06-27T08:01:51.164Z,66.27
2019-06-27T08:02:51.154Z,66.36
2019-06-27T08:03:51.148Z,65.78
2019-06-27T08:04:51.128Z,66.08
2019-06-27T08:05:51.111Z,65.82
2019-06-27T08:06:51.100Z,63.37
2019-06-27T08:07:51.154Z,63.47
2019-06-27T08:08:51.079Z,64.92
2019-06-27T08:09:51.063Z,64.82
2019-06-27T08:10:51.051Z,66.08
2019-06-27T08:11:51.037Z,64.92
2019-06-27T08:12:51.048Z,64.86
2019-06-27T08:13:51.016Z,64.15
2019-06-27T08:14:51.005Z,64.28
2019-06-27T08:15:50.991Z,64.47
2019-06-27T08:16:50.981Z,64.66
2019-06-27T08:17:50.971Z,64.89
2019-06-27T08:18:50.958Z,63.73
2019-06-27T08:19:50.953Z,63.15
2019-06-27T08:20:50.942Z,63.12
2019-06-27T08:21:50.924Z,63.89
2019-06-27T08:22:50.916Z,63.98
2019-06-27T08:23:50.900Z,62.34
2019-06-27T08:24:50.889Z,63.40
2019-06-27T08:25:50.879Z,64.11
2019-06-27T08:26:50.862Z,62.21
2019-06-27T08:27:50.856Z,60.57
2019-06-27T08:28:50.883Z,61.63
2019-06-27T08:29:50.841Z,62.82
2019-06-27T08:30:50.819Z,61.44
2019-06-27T08:31:51.869Z,60.69
2019-06-27T08:32:50.799Z,60.31
2019-06-27T08:33:50.782Z,60.02
2019-06-27T08:34:50.774Z,60.60
2019-06-27T08:35:50.883Z,60.50
2019-06-27T08:36:50.749Z,60.31
2019-06-27T08:37:50.741Z,60.31
2019-06-27T08:38:50.726Z,60.92
2019-06-27T08:39:50.717Z,60.53
2019-06-27T08:40:50.704Z,60.53
2019-06-27T08:41:50.694Z,60.63
2019-06-27T08:42:50.684Z,60.47
2019-06-27T08:43:50.670Z,59.50
2019-06-27T08:44:50.660Z,60.75
2019-06-27T08:45:50.655Z,59.23
2019-06-27T08:46:50.662Z,59.05
2019-06-27T08:47:50.634Z,59.23
2019-06-27T08:48:50.616Z,58.30
2019-06-27T08:49:50.605Z,57.14
2019-06-27T08:50:50.593Z,57.62
2019-06-27T08:51:50.599Z,58.20
2019-06-27T08:52:50.576Z,58.39
2019-06-27T08:53:50.561Z,59.20
2019-06-27T08:54:50.551Z,57.75
2019-06-27T08:55:50.543Z,56.49
2019-06-27T08:56:50.537Z,55.42
2019-06-27T08:57:50.522Z,55.49
2019-06-27T08:58:50.516Z,55.78
2019-06-27T08:59:50.499Z,55.36
2019-06-27T09:00:50.491Z,55.85
2019-06-27T09:02:07.061Z,55.66
2019-06-27T09:02:50.469Z,57.11
2019-06-27T09:03:50.466Z,57.01
2019-06-27T09:04:50.445Z,58.11
2019-06-27T09:05:50.439Z,58.11
2019-06-27T09:06:50.437Z,57.62
2019-06-27T09:07:50.417Z,57.55
2019-06-27T09:08:50.414Z,56.51
2019-06-27T09:09:50.397Z,57.00
2019-06-27T09:10:50.397Z,56.71
2019-06-27T09:11:50.374Z,56.74
2019-06-27T09:12:50.366Z,55.28
2019-06-27T09:13:50.359Z,54.92
2019-06-27T09:14:50.356Z,54.53
2019-06-27T09:15:50.350Z,52.78
2019-06-27T09:16:50.322Z,52.08
2019-06-27T09:17:50.314Z,54.35
2019-06-27T09:18:50.310Z,56.10
2019-06-27T09:19:50.294Z,56.77
2019-06-27T09:20:50.293Z,56.71
2019-06-27T09:21:50.277Z,57.68
2019-06-27T09:22:50.265Z,55.74
2019-06-27T09:23:50.259Z,55.77
2019-06-27T09:24:50.251Z,54.50
2019-06-27T09:25:50.250Z,52.93
2019-06-27T09:26:50.229Z,52.90
2019-06-27T09:27:50.214Z,53.09
2019-06-27T09:28:50.210Z,53.49
2019-06-27T09:29:50.204Z,56.32
2019-06-27T09:30:50.185Z,55.35
2019-06-27T09:31:50.186Z,54.80
2019-06-27T09:32:50.173Z,55.38
2019-06-27T09:33:50.158Z,53.08
2019-06-27T09:34:50.148Z,52.98
2019-06-27T09:35:50.138Z,53.17
2019-06-27T09:36:50.130Z,53.37
2019-06-27T09:37:50.119Z,51.81
2019-06-27T09:38:50.126Z,53.00
2019-06-27T09:39:50.119Z,52.72
2019-06-27T09:40:50.104Z,52.91
2019-06-27T09:41:50.080Z,52.25
2019-06-27T09:42:50.076Z,51.35
2019-06-27T09:43:50.066Z,50.96
2019-06-27T09:44:50.051Z,51.65
2019-06-27T09:45:50.053Z,51.35
2019-06-27T09:46:50.036Z,51.06
2019-06-27T09:47:50.030Z,51.65
2019-06-27T09:48:50.069Z,50.58
2019-06-27T09:49:50.012Z,52.35
2019-06-27T09:50:50.000Z,51.38
2019-06-27T09:51:49.988Z,50.89
2019-06-27T09:52:49.981Z,50.41
2019-06-27T09:53:49.968Z,49.63
2019-06-27T09:54:49.960Z,51.87
2019-06-27T09:55:49.949Z,50.43
2019-06-27T09:56:49.943Z,50.24
2019-06-27T09:57:49.936Z,50.82
2019-06-27T09:58:49.920Z,50.92
2019-06-27T09:59:49.920Z,49.39
2019-06-27T10:00:49.906Z,49.39
2019-06-27T10:01:49.903Z,48.88
2019-06-27T10:02:49.888Z,49.95
2019-06-27T10:03:49.880Z,50.24
2019-06-27T10:04:49.873Z,50.73
2019-06-27T10:05:49.860Z,49.58
2019-06-27T10:06:49.862Z,49.58
2019-06-27T10:07:49.863Z,50.95
2019-06-27T10:08:49.832Z,49.34
2019-06-27T10:09:49.839Z,50.53
2019-06-27T10:10:49.818Z,50.34
2019-06-27T10:11:53.162Z,50.24
2019-06-27T10:12:49.798Z,50.36
2019-06-27T10:13:49.797Z,48.41
2019-06-27T10:14:49.788Z,48.73
2019-06-27T10:15:49.777Z,49.61
2019-06-27T10:16:49.776Z,49.24
2019-06-27T10:17:49.758Z,48.34
2019-06-27T10:18:49.749Z,48.34
2019-06-27T10:19:49.740Z,47.96
2019-06-27T10:20:49.750Z,46.78
2019-06-27T10:21:49.730Z,47.59
2019-06-27T10:22:49.717Z,47.88
2019-06-27T10:23:49.711Z,46.64
2019-06-27T10:24:49.700Z,46.93
2019-06-27T10:25:49.696Z,46.64
2019-06-27T10:26:49.686Z,47.22
2019-06-27T10:27:49.677Z,46.86
2019-06-27T10:28:49.673Z,46.44
2019-06-27T10:29:49.674Z,45.95
2019-06-27T10:30:49.651Z,46.17
2019-06-27T10:31:49.706Z,46.08
2019-06-27T10:32:58.973Z,46.17
2019-06-27T10:33:49.647Z,46.17
2019-06-27T10:34:49.618Z,46.37
2019-06-27T10:35:49.628Z,45.42
2019-06-27T10:36:49.606Z,45.03
2019-06-27T10:37:49.595Z,44.42
2019-06-27T10:38:49.591Z,45.98
2019-06-27T10:39:49.581Z,45.81
2019-06-27T10:40:49.571Z,46.20
2019-06-27T10:41:49.561Z,44.44
2019-06-27T10:42:49.563Z,46.00
2019-06-27T10:43:49.546Z,45.00
2019-06-27T10:44:49.564Z,46.27
2019-06-27T10:45:49.542Z,46.69
2019-06-27T10:46:49.523Z,45.51
2019-06-27T10:47:49.515Z,45.00
2019-06-27T10:48:49.513Z,44.79
2019-06-27T10:49:49.502Z,46.05
2019-06-27T10:50:49.499Z,47.53
2019-06-27T10:51:49.488Z,46.37
2019-06-27T10:52:49.473Z,45.28
2019-06-27T10:53:49.474Z,45.08
2019-06-27T10:54:49.469Z,45.37
2019-06-27T10:55:49.450Z,47.13
2019-06-27T10:56:49.440Z,46.83
2019-06-27T10:57:49.443Z,47.73
2019-06-27T10:58:49.428Z,47.05
2019-06-27T10:59:49.424Z,46.47
2019-06-27T11:00:49.408Z,46.08
2019-06-27T11:01:49.417Z,47.44
2019-06-27T11:02:49.391Z,46.66
2019-06-27T11:03:49.387Z,46.56
2019-06-27T11:04:49.399Z,46.17
2019-06-27T11:05:49.365Z,46.47
2019-06-27T11:06:49.363Z,46.95
2019-06-27T11:07:49.352Z,47.22
2019-06-27T11:08:49.390Z,46.34
2019-06-27T11:09:50.388Z,46.73
2019-06-27T11:10:49.440Z,48.58
2019-06-27T11:11:49.314Z,46.93
2019-06-27T11:12:49.308Z,48.39
2019-06-27T11:13:58.977Z,46.44
2019-06-27T11:14:58.597Z,46.27
2019-06-27T11:15:49.528Z,47.13
2019-06-27T11:16:49.275Z,47.15
2019-06-27T11:17:49.264Z,46.05
2019-06-27T11:18:49.261Z,47.80
2019-06-27T11:19:52.651Z,47.42
2019-06-27T11:20:49.255Z,47.61
2019-06-27T11:21:49.238Z,48.39
2019-06-27T11:22:49.225Z,47.71
2019-06-27T11:23:49.218Z,47.13
2019-06-27T11:24:49.216Z,47.80
2019-06-27T11:25:49.219Z,48.85
2019-06-27T11:26:49.192Z,48.66
2019-06-27T11:27:49.185Z,48.88
2019-06-27T11:28:49.184Z,49.27
2019-06-27T11:29:49.167Z,48.39
2019-06-27T11:30:49.159Z,48.85
2019-06-27T11:31:49.176Z,48.27
2019-06-27T11:32:49.147Z,48.85
2019-06-27T11:33:49.146Z,48.34
2019-06-27T11:34:49.166Z,48.07
2019-06-27T11:35:49.131Z,47.49
2019-06-27T11:36:49.114Z,48.75
2019-06-27T11:37:49.107Z,48.95
2019-06-27T11:38:49.111Z,49.07
2019-06-27T11:39:49.096Z,49.76
2019-06-27T11:40:49.103Z,47.42
2019-06-27T11:41:49.072Z,47.25
2019-06-27T11:42:49.064Z,47.80
2019-06-27T11:43:49.060Z,47.92
2019-06-27T11:44:49.052Z,46.64
2019-06-27T11:45:49.042Z,47.71
2019-06-27T11:46:49.030Z,47.73
2019-06-27T11:47:49.020Z,48.22
2019-06-27T11:48:49.018Z,47.73
2019-06-27T11:49:49.007Z,46.47
2019-06-27T11:50:49.005Z,46.27
2019-06-27T11:51:49.006Z,47.03
2019-06-27T11:52:48.981Z,48.39
2019-06-27T11:53:48.991Z,48.90
2019-06-27T11:54:48.967Z,48.41
2019-06-27T11:55:48.959Z,48.41
2019-06-27T11:56:48.973Z,47.22
2019-06-27T11:57:48.947Z,49.10
2019-06-27T11:58:48.938Z,49.39
2019-06-27T11:59:48.926Z,49.51
2019-06-27T12:00:48.926Z,48.83
2019-06-27T12:01:48.919Z,48.44
2019-06-27T12:02:48.902Z,47.95
2019-06-27T12:03:50.042Z,47.97
2019-06-27T12:04:48.888Z,47.07
2019-06-27T12:05:48.880Z,47.36
2019-06-27T12:06:48.874Z,48.44
2019-06-27T12:07:48.864Z,48.34
2019-06-27T12:08:48.855Z,47.27
2019-06-27T12:09:48.879Z,47.36
2019-06-27T12:10:48.838Z,47.07
2019-06-27T12:11:48.835Z,47.66
2019-06-27T12:12:48.827Z,48.14
2019-06-27T12:13:48.819Z,46.97
2019-06-27T12:14:48.807Z,47.27
2019-06-27T12:15:51.549Z,47.17
2019-06-27T12:16:48.795Z,47.66
2019-06-27T12:17:48.787Z,47.15
2019-06-27T12:18:48.781Z,47.22
2019-06-27T12:19:48.769Z,46.86
2019-06-27T12:20:48.767Z,48.71
2019-06-27T12:21:48.759Z,48.41
2019-06-27T12:22:48.753Z,48.34
2019-06-27T12:23:48.738Z,46.30
2019-06-27T12:24:48.734Z,46.88
2019-06-27T12:25:48.734Z,46.78
2019-06-27T12:26:48.721Z,46.69
2019-06-27T12:27:48.712Z,47.36
2019-06-27T12:28:48.700Z,46.69
2019-06-27T12:29:48.695Z,47.85
2019-06-27T12:30:48.687Z,47.17
2019-06-27T12:31:51.578Z,47.19
2019-06-27T12:32:52.638Z,47.27
2019-06-27T12:34:05.245Z,46.78
2019-06-27T12:34:48.653Z,46.70
2019-06-27T12:35:48.655Z,46.90
2019-06-27T12:36:48.645Z,46.39
2019-06-27T12:37:48.638Z,46.80
2019-06-27T12:38:48.646Z,46.70
2019-06-27T12:39:48.614Z,47.19
2019-06-27T12:40:48.610Z,46.12
2019-06-27T12:41:48.605Z,45.83
2019-06-27T12:42:48.591Z,47.00
2019-06-27T12:43:48.584Z,46.90
2019-06-27T12:44:48.576Z,46.20
2019-06-27T12:45:48.575Z,46.37
2019-06-27T12:46:48.559Z,45.98
2019-06-27T12:47:48.553Z,46.66
2019-06-27T12:48:48.547Z,46.76
2019-06-27T12:50:01.498Z,47.63
2019-06-27T12:50:48.539Z,46.66
2019-06-27T12:51:48.528Z,46.69
2019-06-27T12:52:48.517Z,47.85